sensor_id;sensor_type;location;lat;lon;timestamp;pressure;altitude;pressure_sealevel;temperature;humidity
21826;BME280;11075;47.944;11.776;2022-11-20T00:00:56;94120.22;;;7.41;28.58
21826;BME280;11075;47.944;11.776;2022-11-20T00:03:23;94127.41;;;8.31;27.65
21826;BME280;11075;47.944;11.776;2022-11-20T00:05:50;94130.78;;;8.40;27.45
21826;BME280;11075;47.944;11.776;2022-11-20T00:08:17;94125.63;;;8.35;27.44
21826;BME280;11075;47.944;11.776;2022-11-20T00:10:44;94127.34;;;7.70;27.99
21826;BME280;11075;47.944;11.776;2022-11-20T00:13:11;94123.09;;;6.82;29.16
21826;BME280;11075;47.944;11.776;2022-11-20T00:15:38;94133.13;;;8.42;27.25
21826;BME280;11075;47.944;11.776;2022-11-20T00:18:04;94144.16;;;7.91;27.72
21826;BME280;11075;47.944;11.776;2022-11-20T00:20:31;94134.94;;;5.84;29.58
21826;BME280;11075;47.944;11.776;2022-11-20T00:22:58;94145.53;;;8.46;27.05
21826;BME280;11075;47.944;11.776;2022-11-20T00:25:25;94128.22;;;7.08;28.82
21826;BME280;11075;47.944;11.776;2022-11-20T00:27:53;94142.84;;;8.34;27.27
21826;BME280;11075;47.944;11.776;2022-11-20T00:30:19;94164.84;;;9.01;26.13
21826;BME280;11075;47.944;11.776;2022-11-20T00:32:46;94142.19;;;8.13;27.58
21826;BME280;11075;47.944;11.776;2022-11-20T00:35:13;94114.13;;;5.98;30.00
21826;BME280;11075;47.944;11.776;2022-11-20T00:37:40;94102.03;;;5.54;31.40
21826;BME280;11075;47.944;11.776;2022-11-20T00:40:07;94123.78;;;7.33;28.75
21826;BME280;11075;47.944;11.776;2022-11-20T00:42:34;94133.97;;;7.40;28.21
21826;BME280;11075;47.944;11.776;2022-11-20T00:45:01;94150.63;;;7.90;27.81
21826;BME280;11075;47.944;11.776;2022-11-20T00:47:28;94130.72;;;6.51;29.32
21826;BME280;11075;47.944;11.776;2022-11-20T00:49:55;94139.31;;;6.56;29.07
21826;BME280;11075;47.944;11.776;2022-11-20T00:52:21;94148.94;;;7.41;28.35
21826;BME280;11075;47.944;11.776;2022-11-20T00:54:48;94134.78;;;6.78;29.69
21826;BME280;11075;47.944;11.776;2022-11-20T00:57:15;94140.66;;;7.34;28.96
21826;BME280;11075;47.944;11.776;2022-11-20T00:59:43;94125.59;;;5.99;30.69
21826;BME280;11075;47.944;11.776;2022-11-20T01:02:11;94141.75;;;7.33;29.00
21826;BME280;11075;47.944;11.776;2022-11-20T01:04:38;94168.47;;;8.32;27.61
21826;BME280;11075;47.944;11.776;2022-11-20T01:07:05;94167.47;;;8.24;27.56
21826;BME280;11075;47.944;11.776;2022-11-20T01:09:31;94146.44;;;6.52;29.55
21826;BME280;11075;47.944;11.776;2022-11-20T01:11:58;94135.03;;;6.85;29.46
21826;BME280;11075;47.944;11.776;2022-11-20T01:14:25;94128.44;;;6.61;30.24
21826;BME280;11075;47.944;11.776;2022-11-20T01:16:52;94138.69;;;7.22;29.47
21826;BME280;11075;47.944;11.776;2022-11-20T01:19:23;94138.84;;;6.25;30.46
21826;BME280;11075;47.944;11.776;2022-11-20T01:21:53;94143.50;;;6.66;29.87
21826;BME280;11075;47.944;11.776;2022-11-20T01:24:22;94147.00;;;7.29;29.33
21826;BME280;11075;47.944;11.776;2022-11-20T01:26:50;94172.69;;;8.08;28.05
21826;BME280;11075;47.944;11.776;2022-11-20T01:29:23;94137.91;;;6.59;30.73
21826;BME280;11075;47.944;11.776;2022-11-20T01:31:51;94145.28;;;6.83;30.04
21826;BME280;11075;47.944;11.776;2022-11-20T01:34:20;94152.41;;;7.86;28.98
21826;BME280;11075;47.944;11.776;2022-11-20T01:36:52;94152.75;;;7.52;28.96
21826;BME280;11075;47.944;11.776;2022-11-20T01:39:24;94127.13;;;6.38;30.87
21826;BME280;11075;47.944;11.776;2022-11-20T01:41:53;94165.59;;;7.91;28.59
21826;BME280;11075;47.944;11.776;2022-11-20T01:44:57;94159.63;;;8.55;27.66
21826;BME280;11075;47.944;11.776;2022-11-20T01:47:34;94147.91;;;6.71;29.87
21826;BME280;11075;47.944;11.776;2022-11-20T01:50:06;94121.47;;;5.72;31.69
21826;BME280;11075;47.944;11.776;2022-11-20T01:52:41;94152.53;;;6.61;30.16
21826;BME280;11075;47.944;11.776;2022-11-20T01:55:19;94152.50;;;7.78;28.54
21826;BME280;11075;47.944;11.776;2022-11-20T01:57:49;94157.00;;;7.53;29.26
21826;BME280;11075;47.944;11.776;2022-11-20T02:00:18;94165.59;;;7.91;28.63
21826;BME280;11075;47.944;11.776;2022-11-20T02:02:49;94167.91;;;8.26;28.37
21826;BME280;11075;47.944;11.776;2022-11-20T02:05:23;94188.88;;;9.22;26.73
21826;BME280;11075;47.944;11.776;2022-11-20T02:07:52;94179.06;;;9.01;27.00
21826;BME280;11075;47.944;11.776;2022-11-20T02:10:21;94147.91;;;6.91;29.82
21826;BME280;11075;47.944;11.776;2022-11-20T02:12:47;94153.50;;;7.19;29.53
21826;BME280;11075;47.944;11.776;2022-11-20T02:15:33;94183.66;;;8.88;27.32
21826;BME280;11075;47.944;11.776;2022-11-20T02:18:01;94188.50;;;8.59;27.53
21826;BME280;11075;47.944;11.776;2022-11-20T02:20:28;94162.34;;;7.41;29.19
21826;BME280;11075;47.944;11.776;2022-11-20T02:22:59;94141.00;;;6.40;30.45
21826;BME280;11075;47.944;11.776;2022-11-20T02:25:30;94166.28;;;7.22;29.73
21826;BME280;11075;47.944;11.776;2022-11-20T02:27:59;94152.53;;;7.03;29.38
21826;BME280;11075;47.944;11.776;2022-11-20T02:30:26;94163.44;;;7.40;28.97
21826;BME280;11075;47.944;11.776;2022-11-20T02:32:53;94174.00;;;7.57;28.67
21826;BME280;11075;47.944;11.776;2022-11-20T02:37:55;94162.66;;;6.77;29.60
21826;BME280;11075;47.944;11.776;2022-11-20T02:40:23;94164.03;;;6.83;29.31
21826;BME280;11075;47.944;11.776;2022-11-20T02:42:56;94155.31;;;5.33;31.00
21826;BME280;11075;47.944;11.776;2022-11-20T02:45:24;94157.09;;;7.44;28.89
21826;BME280;11075;47.944;11.776;2022-11-20T02:47:51;94179.91;;;7.96;28.15
21826;BME280;11075;47.944;11.776;2022-11-20T02:50:19;94171.34;;;7.69;28.77
21826;BME280;11075;47.944;11.776;2022-11-20T02:52:46;94147.63;;;6.84;29.75
21826;BME280;11075;47.944;11.776;2022-11-20T02:55:13;94163.97;;;7.66;28.69
21826;BME280;11075;47.944;11.776;2022-11-20T02:57:40;94152.94;;;5.49;31.16
21826;BME280;11075;47.944;11.776;2022-11-20T03:00:08;94182.09;;;9.00;26.94
21826;BME280;11075;47.944;11.776;2022-11-20T03:02:35;94152.81;;;7.31;29.03
21826;BME280;11075;47.944;11.776;2022-11-20T03:05:03;94168.88;;;7.10;28.61
21826;BME280;11075;47.944;11.776;2022-11-20T03:07:29;94182.41;;;8.98;26.74
21826;BME280;11075;47.944;11.776;2022-11-20T03:09:56;94192.94;;;9.03;26.52
21826;BME280;11075;47.944;11.776;2022-11-20T03:12:23;94180.19;;;7.70;27.58
21826;BME280;11075;47.944;11.776;2022-11-20T03:14:50;94178.63;;;7.69;27.91
21826;BME280;11075;47.944;11.776;2022-11-20T03:17:19;94190.75;;;7.99;27.25
21826;BME280;11075;47.944;11.776;2022-11-20T03:19:46;94189.16;;;8.31;27.39
21826;BME280;11075;47.944;11.776;2022-11-20T03:22:13;94188.69;;;8.05;27.38
21826;BME280;11075;47.944;11.776;2022-11-20T03:24:40;94158.56;;;5.74;30.45
21826;BME280;11075;47.944;11.776;2022-11-20T03:27:06;94169.19;;;7.09;28.86
21826;BME280;11075;47.944;11.776;2022-11-20T03:29:35;94199.13;;;9.32;26.29
21826;BME280;11075;47.944;11.776;2022-11-20T03:32:02;94178.41;;;8.55;27.02
21826;BME280;11075;47.944;11.776;2022-11-20T03:34:28;94192.97;;;8.54;26.87
21826;BME280;11075;47.944;11.776;2022-11-20T03:36:55;94193.75;;;7.85;27.06
21826;BME280;11075;47.944;11.776;2022-11-20T03:39:22;94184.28;;;7.13;28.13
21826;BME280;11075;47.944;11.776;2022-11-20T03:41:50;94175.22;;;7.92;27.47
21826;BME280;11075;47.944;11.776;2022-11-20T03:44:16;94184.28;;;6.92;28.48
21826;BME280;11075;47.944;11.776;2022-11-20T03:46:43;94192.31;;;8.82;26.41
21826;BME280;11075;47.944;11.776;2022-11-20T03:49:10;94177.25;;;7.30;28.30
21826;BME280;11075;47.944;11.776;2022-11-20T03:51:37;94193.84;;;8.71;26.45
21826;BME280;11075;47.944;11.776;2022-11-20T03:54:08;94205.81;;;7.79;27.02
21826;BME280;11075;47.944;11.776;2022-11-20T03:56:37;94188.03;;;8.32;27.26
21826;BME280;11075;47.944;11.776;2022-11-20T03:59:06;94179.50;;;8.06;27.41
21826;BME280;11075;47.944;11.776;2022-11-20T04:01:35;94203.25;;;9.41;25.65
21826;BME280;11075;47.944;11.776;2022-11-20T04:04:04;94190.72;;;8.20;27.12
21826;BME280;11075;47.944;11.776;2022-11-20T04:06:36;94189.91;;;7.20;27.84
21826;BME280;11075;47.944;11.776;2022-11-20T04:09:05;94180.19;;;8.03;27.40
21826;BME280;11075;47.944;11.776;2022-11-20T04:11:34;94191.88;;;7.11;28.12
21826;BME280;11075;47.944;11.776;2022-11-20T04:14:03;94190.09;;;7.57;28.05
21826;BME280;11075;47.944;11.776;2022-11-20T04:16:32;94205.59;;;8.30;27.20
21826;BME280;11075;47.944;11.776;2022-11-20T04:19:01;94203.16;;;8.85;26.61
21826;BME280;11075;47.944;11.776;2022-11-20T04:21:28;94181.47;;;6.30;29.05
21826;BME280;11075;47.944;11.776;2022-11-20T04:23:55;94162.78;;;6.80;29.46
21826;BME280;11075;47.944;11.776;2022-11-20T04:26:25;94186.72;;;7.48;27.97
21826;BME280;11075;47.944;11.776;2022-11-20T04:28:52;94187.72;;;7.88;27.75
21826;BME280;11075;47.944;11.776;2022-11-20T04:31:21;94189.91;;;7.20;28.69
21826;BME280;11075;47.944;11.776;2022-11-20T04:33:48;94161.44;;;6.45;29.55
21826;BME280;11075;47.944;11.776;2022-11-20T04:36:24;94181.56;;;7.88;27.89
21826;BME280;11075;47.944;11.776;2022-11-20T04:38:56;94230.31;;;10.48;24.56
21826;BME280;11075;47.944;11.776;2022-11-20T04:41:26;94209.28;;;8.62;26.56
21826;BME280;11075;47.944;11.776;2022-11-20T04:43:55;94196.84;;;7.42;27.87
21826;BME280;11075;47.944;11.776;2022-11-20T04:46:36;94208.09;;;8.83;26.23
21826;BME280;11075;47.944;11.776;2022-11-20T04:49:04;94213.00;;;9.74;25.34
21826;BME280;11075;47.944;11.776;2022-11-20T04:51:32;94230.34;;;10.04;24.79
21826;BME280;11075;47.944;11.776;2022-11-20T04:53:59;94238.56;;;9.28;25.55
21826;BME280;11075;47.944;11.776;2022-11-20T04:56:26;94191.78;;;6.49;28.94
21826;BME280;11075;47.944;11.776;2022-11-20T04:58:53;94212.22;;;9.73;25.78
21826;BME280;11075;47.944;11.776;2022-11-20T05:01:22;94199.03;;;7.61;27.65
21826;BME280;11075;47.944;11.776;2022-11-20T05:03:51;94205.72;;;8.70;26.77
21826;BME280;11075;47.944;11.776;2022-11-20T05:06:19;94198.22;;;8.63;27.08
21826;BME280;11075;47.944;11.776;2022-11-20T05:08:46;94193.25;;;7.71;28.11
21826;BME280;11075;47.944;11.776;2022-11-20T05:11:16;94190.09;;;6.44;29.17
21826;BME280;11075;47.944;11.776;2022-11-20T05:13:43;94205.09;;;8.03;27.69
21826;BME280;11075;47.944;11.776;2022-11-20T05:16:12;94176.50;;;4.69;31.37
21826;BME280;11075;47.944;11.776;2022-11-20T05:18:40;94184.66;;;7.66;28.35
21826;BME280;11075;47.944;11.776;2022-11-20T05:21:09;94190.88;;;6.95;28.87
21826;BME280;11075;47.944;11.776;2022-11-20T05:23:37;94226.81;;;9.32;25.92
21826;BME280;11075;47.944;11.776;2022-11-20T05:26:05;94175.84;;;7.44;28.84
21826;BME280;11075;47.944;11.776;2022-11-20T05:28:33;94158.19;;;5.92;30.82
21826;BME280;11075;47.944;11.776;2022-11-20T05:31:12;94185.06;;;8.01;28.13
21826;BME280;11075;47.944;11.776;2022-11-20T05:33:41;94197.75;;;8.12;27.98
21826;BME280;11075;47.944;11.776;2022-11-20T05:36:09;94206.94;;;8.60;27.52
21826;BME280;11075;47.944;11.776;2022-11-20T05:38:36;94196.19;;;7.04;28.88
21826;BME280;11075;47.944;11.776;2022-11-20T05:41:05;94205.84;;;7.91;27.99
21826;BME280;11075;47.944;11.776;2022-11-20T05:43:34;94169.03;;;5.96;30.55
21826;BME280;11075;47.944;11.776;2022-11-20T05:46:01;94188.44;;;7.65;28.18
21826;BME280;11075;47.944;11.776;2022-11-20T05:48:28;94204.28;;;8.84;27.12
21826;BME280;11075;47.944;11.776;2022-11-20T05:50:57;94207.19;;;8.92;26.93
21826;BME280;11075;47.944;11.776;2022-11-20T05:53:25;94190.91;;;6.66;29.09
21826;BME280;11075;47.944;11.776;2022-11-20T05:55:58;94173.88;;;5.21;31.42
21826;BME280;11075;47.944;11.776;2022-11-20T05:58:24;94197.97;;;8.19;27.94
21826;BME280;11075;47.944;11.776;2022-11-20T06:00:52;94175.53;;;7.04;29.95
21826;BME280;11075;47.944;11.776;2022-11-20T06:03:19;94163.25;;;6.23;30.02
21826;BME280;11075;47.944;11.776;2022-11-20T06:05:46;94174.84;;;6.66;29.85
21826;BME280;11075;47.944;11.776;2022-11-20T06:08:13;94188.63;;;7.26;28.89
21826;BME280;11075;47.944;11.776;2022-11-20T06:10:39;94195.91;;;6.76;29.40
21826;BME280;11075;47.944;11.776;2022-11-20T06:13:06;94169.16;;;5.10;31.78
21826;BME280;11075;47.944;11.776;2022-11-20T06:15:33;94167.19;;;6.55;30.14
21826;BME280;11075;47.944;11.776;2022-11-20T06:18:00;94199.69;;;6.95;28.82
21826;BME280;11075;47.944;11.776;2022-11-20T06:20:27;94173.69;;;6.75;29.40
21826;BME280;11075;47.944;11.776;2022-11-20T06:22:54;94205.94;;;7.83;27.96
21826;BME280;11075;47.944;11.776;2022-11-20T06:25:21;94150.13;;;4.68;32.87
21826;BME280;11075;47.944;11.776;2022-11-20T06:27:47;94198.41;;;7.43;28.26
21826;BME280;11075;47.944;11.776;2022-11-20T06:30:14;94184.16;;;6.89;29.00
21826;BME280;11075;47.944;11.776;2022-11-20T06:32:41;94181.06;;;5.38;31.11
21826;BME280;11075;47.944;11.776;2022-11-20T06:35:10;94180.31;;;6.10;30.38
21826;BME280;11075;47.944;11.776;2022-11-20T06:37:36;94185.28;;;6.58;29.81
21826;BME280;11075;47.944;11.776;2022-11-20T06:40:04;94208.53;;;7.58;27.71
21826;BME280;11075;47.944;11.776;2022-11-20T06:42:32;94212.34;;;6.66;28.80
21826;BME280;11075;47.944;11.776;2022-11-20T06:44:59;94216.53;;;5.99;29.31
21826;BME280;11075;47.944;11.776;2022-11-20T06:47:25;94228.06;;;7.59;27.41
21826;BME280;11075;47.944;11.776;2022-11-20T06:49:52;94241.94;;;8.39;26.52
21826;BME280;11075;47.944;11.776;2022-11-20T06:52:19;94252.47;;;7.45;27.41
21826;BME280;11075;47.944;11.776;2022-11-20T06:54:45;94240.22;;;7.15;27.88
21826;BME280;11075;47.944;11.776;2022-11-20T06:57:12;94262.47;;;9.05;25.72
21826;BME280;11075;47.944;11.776;2022-11-20T06:59:40;94251.31;;;7.88;27.04
21826;BME280;11075;47.944;11.776;2022-11-20T07:02:11;94253.91;;;7.97;27.03
21826;BME280;11075;47.944;11.776;2022-11-20T07:04:39;94236.88;;;6.68;28.43
21826;BME280;11075;47.944;11.776;2022-11-20T07:07:06;94239.78;;;6.07;29.11
21826;BME280;11075;47.944;11.776;2022-11-20T07:09:33;94254.66;;;8.18;26.82
21826;BME280;11075;47.944;11.776;2022-11-20T07:12:00;94239.03;;;7.04;28.46
21826;BME280;11075;47.944;11.776;2022-11-20T07:14:27;94244.66;;;7.11;28.08
21826;BME280;11075;47.944;11.776;2022-11-20T07:16:53;94247.16;;;7.16;27.82
21826;BME280;11075;47.944;11.776;2022-11-20T07:19:20;94278.53;;;9.41;25.40
21826;BME280;11075;47.944;11.776;2022-11-20T07:21:48;94267.84;;;7.36;27.72
21826;BME280;11075;47.944;11.776;2022-11-20T07:24:14;94264.22;;;7.74;27.20
21826;BME280;11075;47.944;11.776;2022-11-20T07:26:46;94312.88;;;10.56;24.00
21826;BME280;11075;47.944;11.776;2022-11-20T07:29:12;94364.09;;;14.07;20.74
21826;BME280;11075;47.944;11.776;2022-11-20T07:31:41;94351.25;;;10.37;23.31
21826;BME280;11075;47.944;11.776;2022-11-20T07:34:08;94357.75;;;12.75;21.84
21826;BME280;11075;47.944;11.776;2022-11-20T07:36:35;94368.69;;;12.59;21.89
21826;BME280;11075;47.944;11.776;2022-11-20T07:39:02;94347.47;;;10.70;23.72
21826;BME280;11075;47.944;11.776;2022-11-20T07:41:29;94307.13;;;9.09;26.10
21826;BME280;11075;47.944;11.776;2022-11-20T07:43:56;94312.84;;;11.35;23.55
21826;BME280;11075;47.944;11.776;2022-11-20T07:46:23;94343.31;;;12.44;22.14
21826;BME280;11075;47.944;11.776;2022-11-20T07:48:49;94337.47;;;12.42;22.74
21826;BME280;11075;47.944;11.776;2022-11-20T07:51:16;94355.06;;;12.32;21.86
21826;BME280;11075;47.944;11.776;2022-11-20T07:53:43;94338.53;;;11.80;22.90
21826;BME280;11075;47.944;11.776;2022-11-20T07:56:10;94350.84;;;12.16;22.15
21826;BME280;11075;47.944;11.776;2022-11-20T07:58:37;94372.78;;;12.72;21.54
21826;BME280;11075;47.944;11.776;2022-11-20T08:01:05;94404.38;;;15.50;19.03
21826;BME280;11075;47.944;11.776;2022-11-20T08:03:35;94365.59;;;11.17;22.98
21826;BME280;11075;47.944;11.776;2022-11-20T08:06:04;94315.09;;;8.36;26.21
21826;BME280;11075;47.944;11.776;2022-11-20T08:08:31;94342.59;;;13.61;21.92
21826;BME280;11075;47.944;11.776;2022-11-20T08:11:00;94343.81;;;11.41;23.18
21826;BME280;11075;47.944;11.776;2022-11-20T08:13:45;94373.88;;;12.48;21.21
21826;BME280;11075;47.944;11.776;2022-11-20T08:16:31;94316.88;;;8.32;26.11
21826;BME280;11075;47.944;11.776;2022-11-20T08:18:57;94311.38;;;9.35;25.68
21826;BME280;11075;47.944;11.776;2022-11-20T08:21:24;94305.31;;;8.65;25.72
21826;BME280;11075;47.944;11.776;2022-11-20T08:23:51;94294.00;;;8.71;26.25
21826;BME280;11075;47.944;11.776;2022-11-20T08:26:18;94261.25;;;6.75;29.00
21826;BME280;11075;47.944;11.776;2022-11-20T08:28:47;94278.38;;;7.95;26.66
21826;BME280;11075;47.944;11.776;2022-11-20T08:31:14;94253.38;;;5.50;29.50
21826;BME280;11075;47.944;11.776;2022-11-20T08:33:41;94303.66;;;9.09;24.89
21826;BME280;11075;47.944;11.776;2022-11-20T08:36:08;94293.91;;;7.89;26.33
21826;BME280;11075;47.944;11.776;2022-11-20T08:38:35;94309.66;;;8.57;25.21
21826;BME280;11075;47.944;11.776;2022-11-20T08:41:03;94285.16;;;8.59;26.05
21826;BME280;11075;47.944;11.776;2022-11-20T08:46:20;94281.47;;;7.85;26.24
21826;BME280;11075;47.944;11.776;2022-11-20T08:48:47;94268.88;;;6.64;27.77
21826;BME280;11075;47.944;11.776;2022-11-20T08:51:14;94283.28;;;7.60;26.78
21826;BME280;11075;47.944;11.776;2022-11-20T08:53:42;94295.72;;;8.88;25.61
21826;BME280;11075;47.944;11.776;2022-11-20T08:56:09;94289.41;;;7.81;26.21
21826;BME280;11075;47.944;11.776;2022-11-20T08:58:38;94308.03;;;9.01;24.88
21826;BME280;11075;47.944;11.776;2022-11-20T09:01:25;94297.50;;;8.96;24.79
21826;BME280;11075;47.944;11.776;2022-11-20T09:03:56;94279.06;;;7.71;26.50
21826;BME280;11075;47.944;11.776;2022-11-20T09:06:23;94294.41;;;8.37;25.23
21826;BME280;11075;47.944;11.776;2022-11-20T09:08:54;94297.91;;;8.62;25.21
21826;BME280;11075;47.944;11.776;2022-11-20T09:11:21;94302.06;;;7.93;25.47
21826;BME280;11075;47.944;11.776;2022-11-20T09:13:49;94293.22;;;7.39;26.63
21826;BME280;11075;47.944;11.776;2022-11-20T09:16:15;94305.91;;;9.19;24.39
21826;BME280;11075;47.944;11.776;2022-11-20T09:18:42;94324.03;;;9.22;24.12
21826;BME280;11075;47.944;11.776;2022-11-20T09:21:11;94310.13;;;9.57;23.84
21826;BME280;11075;47.944;11.776;2022-11-20T09:23:39;94288.28;;;8.61;25.27
21826;BME280;11075;47.944;11.776;2022-11-20T09:26:10;94282.03;;;7.37;26.23
21826;BME280;11075;47.944;11.776;2022-11-20T09:28:38;94299.41;;;8.83;24.65
21826;BME280;11075;47.944;11.776;2022-11-20T09:31:06;94281.66;;;6.88;26.43
21826;BME280;11075;47.944;11.776;2022-11-20T09:33:34;94302.44;;;8.94;24.20
21826;BME280;11075;47.944;11.776;2022-11-20T09:36:02;94294.97;;;7.76;25.62
21826;BME280;11075;47.944;11.776;2022-11-20T09:38:28;94311.94;;;8.92;23.83
21826;BME280;11075;47.944;11.776;2022-11-20T09:41:05;94311.78;;;6.85;25.31
21826;BME280;11075;47.944;11.776;2022-11-20T09:49:23;94312.78;;;8.59;24.02
21826;BME280;11075;47.944;11.776;2022-11-20T09:51:58;94294.78;;;8.72;24.02
21826;BME280;11075;47.944;11.776;2022-11-20T09:54:30;94296.41;;;6.09;25.60
21826;BME280;11075;47.944;11.776;2022-11-20T09:57:36;94333.38;;;10.61;21.43
21826;BME280;11075;47.944;11.776;2022-11-20T10:00:05;94306.28;;;6.81;25.00
21826;BME280;11075;47.944;11.776;2022-11-20T10:02:50;94317.84;;;8.73;23.37
21826;BME280;11075;47.944;11.776;2022-11-20T10:06:01;94316.28;;;9.57;22.92
21826;BME280;11075;47.944;11.776;2022-11-20T10:08:22;94294.91;;;8.75;23.99
21826;BME280;11075;47.944;11.776;2022-11-20T10:29:54;94361.00;;;12.03;18.79
21826;BME280;11075;47.944;11.776;2022-11-20T10:32:32;94388.91;;;17.74;16.52
21826;BME280;11075;47.944;11.776;2022-11-20T10:35:38;94355.09;;;11.62;20.32
21826;BME280;11075;47.944;11.776;2022-11-20T10:38:14;94362.06;;;12.98;18.85
21826;BME280;11075;47.944;11.776;2022-11-20T10:40:46;94364.84;;;13.02;18.92
21826;BME280;11075;47.944;11.776;2022-11-20T10:43:24;94344.91;;;11.71;21.15
21826;BME280;11075;47.944;11.776;2022-11-20T10:46:08;94339.16;;;11.06;20.89
21826;BME280;11075;47.944;11.776;2022-11-20T10:48:38;94328.59;;;12.03;20.15
21826;BME280;11075;47.944;11.776;2022-11-20T10:56:34;94316.31;;;9.20;22.68
21826;BME280;11075;47.944;11.776;2022-11-20T11:01:54;94298.38;;;8.18;23.14
21826;BME280;11075;47.944;11.776;2022-11-20T11:04:40;94299.13;;;10.45;21.53
21826;BME280;11075;47.944;11.776;2022-11-20T11:07:29;94289.16;;;9.62;22.78
21826;BME280;11075;47.944;11.776;2022-11-20T11:09:57;94304.94;;;11.77;20.70
21826;BME280;11075;47.944;11.776;2022-11-20T11:12:26;94328.97;;;13.58;19.04
21826;BME280;11075;47.944;11.776;2022-11-20T11:14:55;94313.16;;;11.65;20.59
21826;BME280;11075;47.944;11.776;2022-11-20T11:17:30;94339.94;;;12.31;19.94
21826;BME280;11075;47.944;11.776;2022-11-20T11:20:14;94293.16;;;11.85;21.41
21826;BME280;11075;47.944;11.776;2022-11-20T11:22:51;94287.22;;;9.75;22.18
21826;BME280;11075;47.944;11.776;2022-11-20T11:25:20;94282.78;;;9.42;22.82
21826;BME280;11075;47.944;11.776;2022-11-20T11:27:49;94299.72;;;11.33;20.81
21826;BME280;11075;47.944;11.776;2022-11-20T11:30:18;94302.88;;;10.41;21.51
21826;BME280;11075;47.944;11.776;2022-11-20T11:32:45;94286.31;;;9.06;22.60
21826;BME280;11075;47.944;11.776;2022-11-20T11:35:26;94286.81;;;9.89;22.69
21826;BME280;11075;47.944;11.776;2022-11-20T11:38:06;94282.63;;;9.11;22.66
21826;BME280;11075;47.944;11.776;2022-11-20T11:40:38;94278.84;;;9.52;22.70
21826;BME280;11075;47.944;11.776;2022-11-20T11:43:22;94266.34;;;8.46;23.36
21826;BME280;11075;47.944;11.776;2022-11-20T11:51:53;94249.63;;;7.83;24.10
21826;BME280;11075;47.944;11.776;2022-11-20T11:54:26;94257.09;;;8.80;23.37
21826;BME280;11075;47.944;11.776;2022-11-20T11:56:59;94248.03;;;8.85;23.42
21826;BME280;11075;47.944;11.776;2022-11-20T11:59:57;94273.59;;;12.11;20.69
21826;BME280;11075;47.944;11.776;2022-11-20T12:05:20;94284.13;;;11.78;20.89
21826;BME280;11075;47.944;11.776;2022-11-20T12:07:54;94276.72;;;11.04;21.32
21826;BME280;11075;47.944;11.776;2022-11-20T12:13:06;94267.47;;;11.21;21.55
21826;BME280;11075;47.944;11.776;2022-11-20T12:15:42;94265.72;;;8.98;23.20
21826;BME280;11075;47.944;11.776;2022-11-20T12:18:16;94267.06;;;8.92;22.68
21826;BME280;11075;47.944;11.776;2022-11-20T12:26:10;94242.63;;;8.73;23.62
21826;BME280;11075;47.944;11.776;2022-11-20T12:29:09;94256.28;;;9.29;22.20
21826;BME280;11075;47.944;11.776;2022-11-20T12:37:33;94231.28;;;7.52;24.39
21826;BME280;11075;47.944;11.776;2022-11-20T12:43:24;94243.38;;;9.34;22.81
21826;BME280;11075;47.944;11.776;2022-11-20T13:05:49;94262.78;;;11.18;21.19
21826;BME280;11075;47.944;11.776;2022-11-20T13:08:38;94244.66;;;8.76;23.38
21826;BME280;11075;47.944;11.776;2022-11-20T13:17:00;94236.03;;;10.78;22.69
21826;BME280;11075;47.944;11.776;2022-11-20T13:19:32;94223.44;;;9.75;23.77
21826;BME280;11075;47.944;11.776;2022-11-20T13:21:59;94235.41;;;11.16;22.62
21826;BME280;11075;47.944;11.776;2022-11-20T13:24:29;94210.03;;;9.51;25.11
21826;BME280;11075;47.944;11.776;2022-11-20T13:29:36;94188.34;;;9.04;25.69
21826;BME280;11075;47.944;11.776;2022-11-20T13:32:11;94186.06;;;10.02;24.66
21826;BME280;11075;47.944;11.776;2022-11-20T13:35:00;94188.38;;;10.47;24.29
21826;BME280;11075;47.944;11.776;2022-11-20T13:37:34;94178.13;;;9.77;24.98
21826;BME280;11075;47.944;11.776;2022-11-20T13:42:37;94184.81;;;11.29;23.67
21826;BME280;11075;47.944;11.776;2022-11-20T13:45:10;94156.03;;;7.57;27.29
21826;BME280;11075;47.944;11.776;2022-11-20T13:47:47;94179.50;;;9.71;25.38
21826;BME280;11075;47.944;11.776;2022-11-20T13:50:15;94201.56;;;10.52;23.42
21826;BME280;11075;47.944;11.776;2022-11-20T13:53:04;94177.69;;;9.75;25.18
21826;BME280;11075;47.944;11.776;2022-11-20T13:58:40;94146.97;;;7.62;28.16
21826;BME280;11075;47.944;11.776;2022-11-20T14:01:20;94142.81;;;8.95;27.17
21826;BME280;11075;47.944;11.776;2022-11-20T14:03:48;94120.06;;;7.25;29.03
21826;BME280;11075;47.944;11.776;2022-11-20T14:06:38;94141.88;;;9.03;26.21
21826;BME280;11075;47.944;11.776;2022-11-20T14:09:11;94146.72;;;9.53;26.57
21826;BME280;11075;47.944;11.776;2022-11-20T14:11:46;94140.22;;;9.27;26.86
21826;BME280;11075;47.944;11.776;2022-11-20T14:14:23;94139.34;;;9.23;26.75
21826;BME280;11075;47.944;11.776;2022-11-20T14:16:52;94138.91;;;9.76;26.21
21826;BME280;11075;47.944;11.776;2022-11-20T14:21:53;94123.97;;;9.79;26.68
21826;BME280;11075;47.944;11.776;2022-11-20T14:24:22;94145.75;;;10.68;25.09
21826;BME280;11075;47.944;11.776;2022-11-20T14:26:51;94152.59;;;10.97;24.25
21826;BME280;11075;47.944;11.776;2022-11-20T14:29:20;94144.78;;;11.50;24.31
21826;BME280;11075;47.944;11.776;2022-11-20T14:31:52;94167.25;;;12.65;23.46
21826;BME280;11075;47.944;11.776;2022-11-20T14:34:23;94166.38;;;11.31;24.84
21826;BME280;11075;47.944;11.776;2022-11-20T14:36:55;94159.97;;;11.20;25.22
21826;BME280;11075;47.944;11.776;2022-11-20T14:39:30;94150.47;;;9.93;25.86
21826;BME280;11075;47.944;11.776;2022-11-20T14:41:58;94129.88;;;9.13;26.93
21826;BME280;11075;47.944;11.776;2022-11-20T14:44:29;94113.22;;;8.31;28.35
21826;BME280;11075;47.944;11.776;2022-11-20T14:46:58;94114.94;;;8.75;26.98
21826;BME280;11075;47.944;11.776;2022-11-20T14:49:30;94127.88;;;9.81;25.81
21826;BME280;11075;47.944;11.776;2022-11-20T14:52:00;94141.63;;;10.39;25.24
21826;BME280;11075;47.944;11.776;2022-11-20T14:54:27;94122.72;;;8.52;27.42